Time;durP1;ratioP1;P1;durP2;ratioP2;P2;SDS_P1;SDS_P2;PMS_P1;PMS_P2;Temp;Humidity;BMP_temperature;BMP_pressure;BME280_temperature;BME280_humidity;BME280_pressure;Samples;Min_cycle;Max_cycle;Signal;HPM_P1;HPM_P2
2023/12/27 00:03:11;;;;;;;2.90;1.90;;;;;;;4.65;87.67;98837.33;226541;1273;22552;-76
2023/12/27 00:08:13;;;;;;;3.60;1.80;;;;;;;4.75;87.28;98847.89;226288;1273;22542;-76
2023/12/27 00:13:16;;;;;;;3.50;1.80;;;;;;;4.82;87.17;98854.86;226425;1270;22596;-76
2023/12/27 00:18:18;;;;;;;2.90;1.60;;;;;;;4.89;87.29;98872.03;226562;1273;25277;-76
2023/12/27 00:23:20;;;;;;;3.50;1.70;;;;;;;5.03;86.89;98876.60;226389;1274;24237;-76
2023/12/27 00:28:32;;;;;;;2.70;1.60;;;;;;;5.12;86.24;98884.97;226532;1273;22670;-76
2023/12/27 00:33:35;;;;;;;2.10;1.30;;;;;;;5.16;85.82;98884.14;226487;1267;22566;-76
2023/12/27 00:38:37;;;;;;;2.00;1.20;;;;;;;5.26;85.24;98892.98;226400;1272;24252;-75
2023/12/27 00:43:40;;;;;;;2.20;1.00;;;;;;;5.32;84.42;98899.33;226459;1271;24283;-76
2023/12/27 00:48:42;;;;;;;3.60;1.30;;;;;;;5.32;83.71;98900.55;226509;1273;22548;-75
2023/12/27 00:53:44;;;;;;;2.10;1.30;;;;;;;5.28;83.71;98908.98;226480;1272;25353;-75
2023/12/27 00:58:46;;;;;;;4.20;1.40;;;;;;;5.22;83.08;98914.81;226423;1270;22543;-75
2023/12/27 01:03:48;;;;;;;2.40;1.00;;;;;;;5.13;82.96;98917.84;226523;1273;22577;-75
2023/12/27 01:08:50;;;;;;;4.20;1.20;;;;;;;5.09;82.68;98928.28;226471;1273;22761;-76
2023/12/27 01:13:52;;;;;;;2.60;1.00;;;;;;;5.10;82.65;98938.67;226553;1273;22619;-75
2023/12/27 01:18:55;;;;;;;2.90;0.90;;;;;;;5.13;82.28;98945.77;226439;1272;25325;-75
2023/12/27 01:23:57;;;;;;;2.00;1.10;;;;;;;5.14;82.58;98957.39;226430;1273;23628;-75
2023/12/27 01:28:59;;;;;;;2.60;1.60;;;;;;;5.17;82.16;98958.81;226508;1273;22551;-75
2023/12/27 01:34:01;;;;;;;3.30;1.00;;;;;;;5.22;82.40;98965.10;226550;1273;22542;-75
2023/12/27 01:39:16;;;;;;;2.90;1.10;;;;;;;5.25;81.80;98969.82;226519;1272;24309;-75
2023/12/27 01:44:18;;;;;;;2.90;1.20;;;;;;;5.28;81.86;98974.64;226475;1266;22547;-75
2023/12/27 01:49:20;;;;;;;4.30;1.00;;;;;;;5.29;81.48;98978.86;226485;1272;22592;-75
2023/12/27 01:54:22;;;;;;;2.70;1.10;;;;;;;5.24;81.61;98989.88;226464;1270;22679;-74
2023/12/27 01:59:25;;;;;;;1.70;1.20;;;;;;;5.21;81.45;99000.81;226466;1272;22583;-74
2023/12/27 02:04:27;;;;;;;2.90;1.10;;;;;;;5.18;81.30;98995.34;226515;1263;22541;-74
2023/12/27 02:09:29;;;;;;;2.60;0.90;;;;;;;5.16;81.31;99006.54;226558;1272;22545;-74
2023/12/27 02:14:31;;;;;;;3.20;1.20;;;;;;;5.14;81.14;99010.25;226565;1269;22576;-74
2023/12/27 02:19:33;;;;;;;2.50;1.00;;;;;;;5.12;81.42;99022.47;226471;1272;22612;-74
2023/12/27 02:24:36;;;;;;;2.90;1.30;;;;;;;5.16;81.26;99022.48;226512;1269;23281;-74
2023/12/27 02:29:38;;;;;;;1.50;1.10;;;;;;;5.27;81.01;99029.73;226513;1273;23066;-74
2023/12/27 02:34:40;;;;;;;3.30;1.20;;;;;;;5.37;81.06;99043.09;226392;1272;22559;-74
2023/12/27 02:39:43;;;;;;;2.30;0.90;;;;;;;5.44;80.99;99053.61;226624;1273;22554;-74
2023/12/27 02:44:45;;;;;;;4.30;1.40;;;;;;;5.44;80.52;99056.29;226431;1251;22546;-74
2023/12/27 02:49:47;;;;;;;5.00;1.40;;;;;;;5.40;80.88;99059.98;226468;1270;22554;-74
2023/12/27 02:54:50;;;;;;;1.80;1.30;;;;;;;5.35;81.22;99063.73;226476;1266;23422;-74
2023/12/27 02:59:52;;;;;;;2.00;1.00;;;;;;;5.31;80.79;99075.51;226471;1263;22566;-75
2023/12/27 03:04:54;;;;;;;2.00;0.90;;;;;;;5.20;80.44;99073.05;226515;1272;22555;-74
2023/12/27 03:09:56;;;;;;;2.50;1.20;;;;;;;5.06;80.42;99089.58;226300;1270;22612;-74
2023/12/27 03:14:58;;;;;;;1.70;1.00;;;;;;;4.94;80.37;99096.09;226581;1272;22537;-75
2023/12/27 03:20:00;;;;;;;1.80;0.90;;;;;;;4.84;80.28;99095.86;226432;1272;22541;-74
2023/12/27 03:25:02;;;;;;;2.60;1.10;;;;;;;4.72;80.55;99102.05;226550;1270;22536;-75
2023/12/27 03:30:06;;;;;;;2.50;1.00;;;;;;;4.61;80.93;99112.13;227218;1268;24621;-75
2023/12/27 03:35:09;;;;;;;2.40;0.90;;;;;;;4.49;80.51;99115.55;226642;1272;22541;-75
2023/12/27 03:40:11;;;;;;;4.10;1.00;;;;;;;4.37;80.88;99122.18;226601;1271;25390;-75
2023/12/27 03:45:17;;;;;;;2.00;0.80;;;;;;;4.30;81.08;99127.07;226459;1272;22565;-75
2023/12/27 03:50:19;;;;;;;3.20;1.00;;;;;;;4.20;80.99;99128.64;226531;1266;24926;-75
2023/12/27 03:55:25;;;;;;;3.10;0.90;;;;;;;4.12;81.48;99142.11;226577;1272;22612;-75
2023/12/27 04:00:28;;;;;;;1.90;0.80;;;;;;;4.04;81.92;99152.59;226625;1272;22590;-75
2023/12/27 04:05:31;;;;;;;2.30;0.90;;;;;;;3.96;81.86;99162.58;226560;1266;22536;-74
2023/12/27 04:10:33;;;;;;;2.40;0.80;;;;;;;3.84;82.08;99169.51;226475;1251;22558;-75
2023/12/27 04:15:35;;;;;;;2.90;0.80;;;;;;;3.81;82.09;99178.03;226474;1273;22547;-74
2023/12/27 04:20:37;;;;;;;3.30;1.20;;;;;;;3.83;82.59;99176.94;226534;1272;22569;-75
2023/12/27 04:25:39;;;;;;;3.00;1.50;;;;;;;3.87;82.56;99185.46;226608;1273;22540;-75
2023/12/27 04:30:42;;;;;;;3.40;1.50;;;;;;;3.89;82.59;99187.88;226435;1272;22550;-74
2023/12/27 04:35:47;;;;;;;3.50;1.30;;;;;;;3.88;82.82;99182.09;226505;1272;22566;-75
2023/12/27 04:40:49;;;;;;;2.10;1.10;;;;;;;3.82;82.76;99189.37;226578;1273;23168;-74
2023/12/27 04:45:51;;;;;;;3.70;1.40;;;;;;;3.75;82.70;99203.42;226552;1272;22812;-74
2023/12/27 04:50:53;;;;;;;2.20;1.00;;;;;;;3.67;82.27;99205.39;226587;1273;22640;-74
2023/12/27 04:55:55;;;;;;;2.50;1.10;;;;;;;3.56;82.52;99214.58;226572;1269;22547;-74
2023/12/27 05:00:57;;;;;;;3.70;1.30;;;;;;;3.49;82.45;99220.16;226575;1269;22739;-73
2023/12/27 05:05:59;;;;;;;3.10;1.40;;;;;;;3.42;82.22;99225.42;226566;1270;22637;-77
2023/12/27 05:11:02;;;;;;;1.90;1.00;;;;;;;3.35;82.31;99237.23;226481;1269;22545;-76
2023/12/27 05:16:13;;;;;;;2.20;0.90;;;;;;;3.27;81.67;99247.30;226508;1273;22591;-76
2023/12/27 05:21:19;;;;;;;1.30;0.60;;;;;;;3.17;81.55;99257.04;226567;1272;23912;-76
2023/12/27 05:26:21;;;;;;;2.30;0.90;;;;;;;3.03;81.74;99263.75;226991;1269;22699;-76
2023/12/27 05:31:23;;;;;;;4.00;1.50;;;;;;;2.92;81.60;99278.52;226508;1266;22544;-76
2023/12/27 05:36:25;;;;;;;3.10;1.30;;;;;;;2.80;81.82;99280.16;226485;1272;25362;-74
2023/12/27 05:41:27;;;;;;;2.30;1.70;;;;;;;2.69;82.01;99287.82;226401;1273;22582;-74
2023/12/27 05:46:34;;;;;;;5.30;1.50;;;;;;;2.60;82.12;99301.81;226598;1273;24429;-74
2023/12/27 05:51:36;;;;;;;3.20;1.50;;;;;;;2.48;82.43;99320.18;226811;1273;22572;-74
2023/12/27 05:56:38;;;;;;;1.80;1.20;;;;;;;2.34;82.41;99329.85;226495;1269;25290;-74
2023/12/27 06:01:47;;;;;;;4.10;1.90;;;;;;;2.22;82.73;99331.34;226474;1269;23061;-74
2023/12/27 06:06:49;;;;;;;4.30;1.90;;;;;;;2.10;82.64;99333.33;226432;1269;22579;-74
2023/12/27 06:11:51;;;;;;;3.30;1.80;;;;;;;2.00;83.02;99337.95;226392;1269;22554;-74
2023/12/27 06:16:53;;;;;;;4.40;1.60;;;;;;;1.90;82.99;99334.52;226536;1272;22654;-74
2023/12/27 06:21:55;;;;;;;3.90;1.90;;;;;;;1.84;83.19;99334.67;226431;1269;24238;-74
2023/12/27 06:26:57;;;;;;;7.40;2.50;;;;;;;1.81;83.40;99340.66;226450;1273;22683;-74
2023/12/27 06:32:00;;;;;;;5.50;2.50;;;;;;;1.78;83.38;99344.31;226557;1272;24250;-74
2023/12/27 06:37:02;;;;;;;7.30;2.70;;;;;;;1.73;83.03;99349.06;226492;1273;22565;-74
2023/12/27 06:42:05;;;;;;;4.90;2.30;;;;;;;1.66;83.58;99353.63;226479;1272;22543;-74
2023/12/27 06:47:07;;;;;;;7.70;2.20;;;;;;;1.62;83.28;99379.39;226427;1266;22553;-75
2023/12/27 06:52:09;;;;;;;4.10;2.30;;;;;;;1.57;83.45;99382.45;226420;1273;22517;-74
2023/12/27 06:57:11;;;;;;;7.90;2.60;;;;;;;1.52;83.63;99387.80;226371;1272;22544;-74
2023/12/27 07:02:14;;;;;;;5.00;1.70;;;;;;;1.54;84.01;99395.11;226498;1272;22534;-75
2023/12/27 07:07:15;;;;;;;8.30;2.50;;;;;;;1.61;83.78;99395.77;226468;1274;24919;-74
2023/12/27 07:12:17;;;;;;;9.00;2.70;;;;;;;1.69;83.79;99400.21;226346;1274;22556;-74
2023/12/27 07:17:20;;;;;;;12.80;4.20;;;;;;;1.76;83.83;99406.32;226420;1271;25410;-75
2023/12/27 07:22:22;;;;;;;10.80;3.70;;;;;;;1.77;83.44;99420.42;226462;1272;22594;-74
2023/12/27 07:27:24;;;;;;;11.80;5.70;;;;;;;1.82;83.24;99428.61;226439;1269;22566;-73
2023/12/27 07:32:26;;;;;;;6.30;3.20;;;;;;;1.87;83.35;99436.42;226510;1270;24397;-74
2023/12/27 07:37:28;;;;;;;5.70;3.00;;;;;;;1.88;83.39;99445.55;226519;1266;22601;-73
2023/12/27 07:42:30;;;;;;;5.80;3.20;;;;;;;1.88;83.44;99457.15;226391;1272;22576;-73
2023/12/27 07:47:32;;;;;;;6.70;3.60;;;;;;;1.91;83.54;99461.23;226478;1273;22559;-74
2023/12/27 07:52:35;;;;;;;6.00;3.60;;;;;;;1.97;83.63;99481.10;226499;1270;22540;-73
2023/12/27 07:57:37;;;;;;;6.60;3.00;;;;;;;2.02;83.43;99490.28;226499;1272;22532;-75
2023/12/27 08:02:39;;;;;;;4.70;2.00;;;;;;;2.10;83.61;99496.97;226543;1272;22580;-73
2023/12/27 08:07:40;;;;;;;6.30;2.40;;;;;;;2.20;83.72;99504.71;226393;1257;22533;-73
2023/12/27 08:12:45;;;;;;;6.10;1.70;;;;;;;2.32;83.58;99504.80;226562;1272;22533;-73
2023/12/27 08:17:47;;;;;;;3.10;1.60;;;;;;;2.84;84.53;99516.39;226544;1272;24597;-73
2023/12/27 08:22:49;;;;;;;2.90;1.10;;;;;;;3.35;83.43;99523.84;226577;1274;23641;-75
2023/12/27 08:27:51;;;;;;;3.30;1.00;;;;;;;3.45;82.45;99529.39;226464;1270;22544;-75
2023/12/27 08:32:53;;;;;;;2.80;1.10;;;;;;;3.53;82.22;99540.24;226533;1270;22954;-73
2023/12/27 08:37:55;;;;;;;5.30;1.40;;;;;;;3.62;81.91;99543.37;226448;1274;22536;-75
2023/12/27 08:42:58;;;;;;;2.70;0.80;;;;;;;3.71;81.45;99548.39;226344;1269;22559;-73
2023/12/27 08:48:00;;;;;;;3.10;0.80;;;;;;;3.81;81.12;99554.20;226436;1270;22534;-74
2023/12/27 08:53:03;;;;;;;3.00;1.20;;;;;;;3.89;81.01;99552.81;226399;1273;23965;-73
2023/12/27 08:58:05;;;;;;;2.80;1.00;;;;;;;3.98;80.88;99560.92;226371;1272;22709;-74
2023/12/27 09:03:08;;;;;;;3.60;1.20;;;;;;;4.13;80.91;99557.94;226492;1272;22586;-73
2023/12/27 09:08:10;;;;;;;5.00;1.10;;;;;;;4.26;80.57;99560.83;226449;1272;22533;-74
2023/12/27 09:13:12;;;;;;;3.40;0.90;;;;;;;4.39;80.40;99565.53;226349;1269;22630;-74
2023/12/27 09:18:14;;;;;;;2.90;1.10;;;;;;;4.59;80.63;99571.11;226427;1272;22540;-73
2023/12/27 09:23:16;;;;;;;5.60;1.10;;;;;;;4.78;80.44;99572.09;226312;1273;22548;-74
2023/12/27 09:28:19;;;;;;;3.50;1.60;;;;;;;4.91;79.86;99566.11;226530;1273;22548;-75
2023/12/27 09:33:21;;;;;;;3.50;1.10;;;;;;;5.00;79.58;99568.28;226523;1254;22536;-74
2023/12/27 09:38:24;;;;;;;1.60;1.50;;;;;;;5.07;78.84;99566.58;226370;1270;22623;-74
2023/12/27 09:43:26;;;;;;;3.60;0.90;;;;;;;5.16;79.03;99556.41;226399;1270;24266;-74
2023/12/27 09:48:29;;;;;;;1.60;1.10;;;;;;;5.24;78.63;99549.86;226486;1272;22599;-75
2023/12/27 09:53:31;;;;;;;3.10;1.30;;;;;;;5.32;78.24;99541.52;227208;1271;22542;-74
2023/12/27 09:58:36;;;;;;;6.40;1.20;;;;;;;5.40;77.80;99544.89;226563;1272;22572;-75
2023/12/27 10:03:43;;;;;;;2.70;1.50;;;;;;;5.43;77.19;99539.66;226440;1272;24262;-74
2023/12/27 10:08:45;;;;;;;3.80;1.80;;;;;;;5.49;77.34;99537.58;226493;1272;23274;-74
2023/12/27 10:13:48;;;;;;;5.00;1.60;;;;;;;5.58;77.18;99535.17;226366;1269;22548;-74
2023/12/27 10:18:50;;;;;;;4.30;1.80;;;;;;;5.68;77.43;99532.15;226511;1271;22532;-74
2023/12/27 10:23:53;;;;;;;3.00;1.40;;;;;;;5.75;76.52;99534.16;226451;1265;24844;-74
2023/12/27 10:28:55;;;;;;;3.00;1.00;;;;;;;5.81;76.66;99534.14;226468;1272;22816;-74
2023/12/27 10:34:02;;;;;;;2.20;1.30;;;;;;;5.85;75.76;99538.80;226414;1272;24222;-75
2023/12/27 10:39:07;;;;;;;2.10;1.30;;;;;;;5.92;75.89;99528.62;226441;1272;22540;-74
2023/12/27 10:44:11;;;;;;;3.00;1.30;;;;;;;6.00;75.63;99519.80;226463;1272;22537;-75
2023/12/27 10:49:14;;;;;;;4.20;1.10;;;;;;;6.04;74.40;99521.38;226426;1266;22587;-75
2023/12/27 10:54:21;;;;;;;1.60;0.90;;;;;;;6.06;73.68;99525.91;226483;1274;22567;-76
2023/12/27 10:59:24;;;;;;;4.60;1.50;;;;;;;6.10;73.66;99529.06;226730;1272;22548;-76
2023/12/27 11:04:27;;;;;;;1.60;0.90;;;;;;;6.14;73.13;99529.36;226559;1272;22533;-75
2023/12/27 11:09:31;;;;;;;4.70;1.00;;;;;;;6.17;72.51;99532.55;226499;1272;22527;-76
2023/12/27 11:14:37;;;;;;;3.20;1.30;;;;;;;6.18;71.64;99522.67;226492;1266;22713;-75
2023/12/27 11:19:40;;;;;;;3.60;1.30;;;;;;;6.24;72.76;99516.54;226375;1273;22551;-75
2023/12/27 11:24:43;;;;;;;2.50;1.00;;;;;;;6.35;72.65;99510.30;226554;1272;22572;-75
2023/12/27 11:29:46;;;;;;;4.20;1.10;;;;;;;6.45;72.40;99500.95;226391;1273;181011;-75
2023/12/27 11:34:49;;;;;;;3.10;0.90;;;;;;;6.55;72.54;99502.92;226430;1269;22583;-76
2023/12/27 11:39:52;;;;;;;2.10;0.60;;;;;;;6.58;71.41;99506.31;226372;1269;22589;-75
2023/12/27 11:44:57;;;;;;;2.00;0.60;;;;;;;6.58;70.96;99502.00;226494;1273;22575;-76
2023/12/27 11:50:19;;;;;;;3.30;0.70;;;;;;;6.56;70.43;99490.39;226503;1269;22539;-76
2023/12/27 11:55:22;;;;;;;3.70;1.10;;;;;;;6.51;70.00;99490.09;226411;1272;22630;-76
2023/12/27 12:00:28;;;;;;;4.20;2.00;;;;;;;6.46;69.91;99483.33;226372;1269;22559;-77
2023/12/27 12:06:02;;;;;;;5.10;1.40;;;;;;;6.47;70.25;99481.53;226790;1272;22541;-75
2023/12/27 12:11:10;;;;;;;2.80;1.40;;;;;;;6.44;69.92;99477.91;226444;1273;22550;-76
2023/12/27 12:16:12;;;;;;;6.00;1.50;;;;;;;6.43;69.86;99473.14;226459;1272;22537;-75
2023/12/27 12:21:14;;;;;;;3.00;1.00;;;;;;;6.42;70.10;99463.58;226371;1272;22578;-75
2023/12/27 12:26:17;;;;;;;2.70;1.20;;;;;;;6.39;69.77;99459.70;226510;1272;22567;-75
2023/12/27 12:31:19;;;;;;;2.00;1.00;;;;;;;6.32;69.96;99455.39;226413;1270;22532;-76
2023/12/27 12:36:21;;;;;;;4.00;1.70;;;;;;;6.25;70.05;99458.03;226490;1273;25233;-76
2023/12/27 12:41:43;;;;;;;3.00;0.90;;;;;;;6.19;70.14;99457.18;226540;1272;24327;-76
2023/12/27 12:46:46;;;;;;;4.20;1.20;;;;;;;6.15;70.02;99453.73;226074;1276;22583;-75
2023/12/27 12:51:52;;;;;;;3.70;1.40;;;;;;;6.10;69.62;99446.30;226064;1276;24490;-75
2023/12/27 12:56:58;;;;;;;6.20;1.50;;;;;;;6.08;70.29;99434.00;226162;1276;22540;-75
2023/12/27 13:02:01;;;;;;;3.10;1.20;;;;;;;6.05;70.11;99430.89;226237;1275;25271;-74
2023/12/27 13:07:05;;;;;;;3.10;1.00;;;;;;;6.01;70.19;99430.40;226191;1275;22622;-76
2023/12/27 13:12:07;;;;;;;2.90;1.10;;;;;;;5.96;69.72;99431.56;226131;1276;22533;-75
2023/12/27 13:17:09;;;;;;;4.20;1.40;;;;;;;5.91;69.95;99438.88;226273;1273;22555;-76
2023/12/27 13:22:12;;;;;;;2.90;0.90;;;;;;;5.85;69.71;99447.77;226443;1272;22550;-76
2023/12/27 13:27:14;;;;;;;5.50;1.00;;;;;;;5.79;70.29;99457.77;226479;1273;22537;-75
2023/12/27 13:32:16;;;;;;;5.60;1.30;;;;;;;5.74;70.41;99456.31;226520;1274;22555;-76
2023/12/27 13:37:19;;;;;;;2.30;0.90;;;;;;;5.68;70.19;99448.98;226529;1273;22567;-75
2023/12/27 13:42:22;;;;;;;2.40;1.30;;;;;;;5.61;70.18;99444.77;226514;1272;22558;-75
2023/12/27 13:47:25;;;;;;;4.20;1.50;;;;;;;5.53;70.19;99450.89;226416;1273;22681;-75
2023/12/27 13:52:27;;;;;;;2.30;1.20;;;;;;;5.42;70.21;99456.08;226497;1273;22682;-75
2023/12/27 13:57:29;;;;;;;5.10;1.60;;;;;;;5.30;70.35;99462.09;226516;1273;23459;-75
2023/12/27 14:02:31;;;;;;;3.50;1.20;;;;;;;5.15;70.48;99458.72;226381;1273;25260;-76
2023/12/27 14:07:35;;;;;;;2.90;1.30;;;;;;;5.00;70.50;99459.86;226356;1270;22629;-75
2023/12/27 14:12:42;;;;;;;3.60;1.50;;;;;;;4.84;70.74;99459.34;226384;1272;22559;-76
2023/12/27 14:17:45;;;;;;;5.00;1.40;;;;;;;4.70;70.62;99452.64;226409;1272;24311;-76
2023/12/27 14:22:47;;;;;;;4.10;1.50;;;;;;;4.53;70.73;99448.30;226425;1270;22540;-76
2023/12/27 14:27:50;;;;;;;3.10;1.50;;;;;;;4.38;71.27;99447.88;226477;1273;22554;-75
2023/12/27 14:32:52;;;;;;;4.20;1.50;;;;;;;4.23;71.30;99437.31;226407;1270;22527;-75
2023/12/27 14:37:54;;;;;;;3.50;1.60;;;;;;;4.06;71.35;99432.67;226539;1274;22562;-75
2023/12/27 14:42:58;;;;;;;4.10;1.70;;;;;;;3.89;71.72;99439.67;226501;1273;25288;-75
2023/12/27 14:48:01;;;;;;;6.90;3.40;;;;;;;3.73;71.91;99437.03;226496;1273;23022;-74
2023/12/27 14:53:03;;;;;;;11.40;5.00;;;;;;;3.55;71.80;99434.38;226355;1263;22552;-74
2023/12/27 14:58:06;;;;;;;7.20;3.20;;;;;;;3.36;71.89;99430.57;226360;1270;22551;-75
2023/12/27 15:03:09;;;;;;;3.20;2.00;;;;;;;3.18;71.91;99433.27;226491;1274;22563;-74
2023/12/27 15:08:12;;;;;;;8.50;4.60;;;;;;;2.99;72.55;99433.95;226368;1273;24523;-74
2023/12/27 15:13:13;;;;;;;14.00;7.40;;;;;;;2.82;72.70;99427.00;226413;1272;22541;-75
2023/12/27 15:18:17;;;;;;;19.40;9.90;;;;;;;2.67;73.27;99418.12;226482;1275;23364;-75
2023/12/27 15:23:20;;;;;;;18.70;10.80;;;;;;;2.52;73.50;99419.87;226429;1274;22665;-74
2023/12/27 15:28:24;;;;;;;12.80;7.60;;;;;;;2.38;73.72;99421.45;226508;1272;22563;-74
2023/12/27 15:33:27;;;;;;;22.40;11.60;;;;;;;2.25;74.32;99420.72;226529;1273;22830;-75
2023/12/27 15:38:29;;;;;;;27.00;13.40;;;;;;;2.13;74.53;99418.71;226502;1274;22552;-74
2023/12/27 15:43:32;;;;;;;75.00;28.70;;;;;;;2.02;74.80;99421.48;226468;1272;22576;-75
2023/12/27 15:48:34;;;;;;;70.10;28.70;;;;;;;1.93;74.85;99423.38;227241;1274;22548;-75
2023/12/27 15:53:37;;;;;;;88.40;37.30;;;;;;;1.85;74.99;99427.83;226428;1251;22638;-75
2023/12/27 15:58:39;;;;;;;98.50;44.50;;;;;;;1.78;75.10;99430.64;226546;1251;22467;-74
2023/12/27 16:03:41;;;;;;;87.40;40.70;;;;;;;1.70;75.04;99424.11;226422;1275;22547;-75
2023/12/27 16:08:44;;;;;;;92.60;42.70;;;;;;;1.61;75.31;99424.95;226453;1274;22579;-75
2023/12/27 16:13:48;;;;;;;92.20;43.20;;;;;;;1.52;75.67;99415.58;226403;1272;22559;-74
2023/12/27 16:18:50;;;;;;;97.60;48.60;;;;;;;1.43;75.93;99412.15;226464;1274;22540;-75
2023/12/27 16:23:52;;;;;;;106.10;52.80;;;;;;;1.31;76.08;99411.08;226530;1274;22540;-74
2023/12/27 16:28:55;;;;;;;166.80;78.60;;;;;;;1.22;76.51;99418.06;226546;1273;22552;-75
2023/12/27 16:33:57;;;;;;;137.80;67.00;;;;;;;1.11;76.85;99434.45;226475;1273;22591;-74
2023/12/27 16:38:59;;;;;;;101.90;48.90;;;;;;;1.02;76.89;99429.59;226322;1273;22573;-74
2023/12/27 16:44:01;;;;;;;97.20;49.10;;;;;;;0.93;76.74;99423.64;226400;1274;22565;-74
2023/12/27 16:49:03;;;;;;;75.40;41.50;;;;;;;0.85;77.19;99423.91;226509;1273;23067;-76
2023/12/27 16:54:06;;;;;;;80.10;41.50;;;;;;;0.77;76.87;99420.10;226523;1273;22595;-75
2023/12/27 16:59:08;;;;;;;96.50;47.40;;;;;;;0.70;77.19;99409.20;226425;1273;22555;-74
2023/12/27 17:04:10;;;;;;;114.30;54.00;;;;;;;0.67;77.49;99421.16;226567;1271;22548;-74
2023/12/27 17:09:12;;;;;;;107.90;53.70;;;;;;;0.63;77.43;99424.53;226465;1273;22540;-74
2023/12/27 17:14:15;;;;;;;106.00;51.20;;;;;;;0.60;77.64;99431.89;226431;1270;22552;-74
2023/12/27 17:19:18;;;;;;;89.40;41.00;;;;;;;0.57;78.16;99434.20;226489;1273;22547;-75
2023/12/27 17:24:20;;;;;;;81.80;40.00;;;;;;;0.62;78.76;99434.85;226393;1270;22555;-75
2023/12/27 17:29:22;;;;;;;79.30;37.30;;;;;;;0.70;79.15;99442.62;226505;1273;22561;-75
2023/12/27 17:34:24;;;;;;;77.30;38.00;;;;;;;0.78;79.43;99442.25;226487;1274;22935;-75
2023/12/27 17:39:27;;;;;;;80.50;39.00;;;;;;;0.81;79.46;99450.84;226501;1273;22962;-74
2023/12/27 17:44:29;;;;;;;79.70;40.50;;;;;;;0.80;79.46;99449.89;226338;1274;25295;-75
2023/12/27 17:49:32;;;;;;;77.50;42.10;;;;;;;0.75;79.41;99444.20;226410;1269;22486;-75
2023/12/27 17:54:34;;;;;;;81.80;42.30;;;;;;;0.69;79.60;99434.55;226448;1263;22584;-75
2023/12/27 17:59:36;;;;;;;73.20;41.10;;;;;;;0.64;79.57;99418.08;226497;1267;23113;-75
2023/12/27 18:04:39;;;;;;;78.90;41.70;;;;;;;0.62;80.01;99413.70;226448;1274;22574;-75
2023/12/27 18:09:43;;;;;;;88.00;45.40;;;;;;;0.64;80.13;99425.37;226415;1273;22537;-75
2023/12/27 18:14:49;;;;;;;79.00;42.20;;;;;;;0.67;80.47;99431.23;226391;1270;22553;-75
2023/12/27 18:19:51;;;;;;;73.10;39.40;;;;;;;0.70;80.32;99417.16;226430;1273;22553;-75
2023/12/27 18:24:54;;;;;;;61.20;35.20;;;;;;;0.74;80.62;99408.53;226352;1273;25352;-75
2023/12/27 18:29:58;;;;;;;71.90;38.70;;;;;;;0.85;81.10;99402.21;226501;1274;22539;-75
2023/12/27 18:35:00;;;;;;;74.80;39.00;;;;;;;0.97;80.96;99393.00;226408;1270;22555;-74
2023/12/27 18:40:04;;;;;;;65.30;35.00;;;;;;;1.07;81.09;99375.79;226353;1273;22654;-74
2023/12/27 18:45:07;;;;;;;57.20;31.80;;;;;;;1.16;81.31;99360.39;226691;1273;22555;-74
2023/12/27 18:50:10;;;;;;;55.10;28.90;;;;;;;1.26;81.08;99353.51;226517;1271;22632;-75
2023/12/27 18:55:13;;;;;;;49.60;27.30;;;;;;;1.38;81.37;99348.94;226518;1267;22569;-75
2023/12/27 19:00:15;;;;;;;42.90;23.90;;;;;;;1.49;81.47;99348.00;226407;1273;22553;-74
2023/12/27 19:05:17;;;;;;;41.00;23.20;;;;;;;1.59;81.76;99343.70;226388;1270;25205;-74
2023/12/27 19:10:20;;;;;;;38.40;22.40;;;;;;;1.65;81.63;99340.77;226572;1272;22519;-74
2023/12/27 19:15:22;;;;;;;50.30;27.50;;;;;;;1.69;81.59;99336.54;226482;1270;22586;-74
2023/12/27 19:20:25;;;;;;;57.50;31.10;;;;;;;1.67;81.49;99310.48;226502;1269;22552;-74
2023/12/27 19:25:27;;;;;;;57.60;32.30;;;;;;;1.59;81.18;99301.48;226531;1273;22676;-76
2023/12/27 19:30:29;;;;;;;57.20;31.40;;;;;;;1.52;81.30;99301.77;226567;1272;22534;-73
2023/12/27 19:35:31;;;;;;;60.30;31.20;;;;;;;1.43;81.32;99294.29;226558;1273;22553;-75
2023/12/27 19:40:34;;;;;;;50.10;29.10;;;;;;;1.35;81.54;99293.47;226411;1273;23128;-75
2023/12/27 19:45:37;;;;;;;53.00;28.90;;;;;;;1.27;81.50;99285.93;226497;1273;22549;-75
2023/12/27 19:50:43;;;;;;;50.50;28.70;;;;;;;1.21;81.59;99278.60;226380;1273;22540;-75
2023/12/27 19:55:46;;;;;;;46.50;26.30;;;;;;;1.16;81.70;99287.02;226464;1273;24534;-74
2023/12/27 20:00:51;;;;;;;57.00;28.40;;;;;;;1.13;81.62;99283.73;226631;1272;23304;-74
2023/12/27 20:05:58;;;;;;;50.70;28.50;;;;;;;1.12;81.83;99285.91;226511;1269;22653;-76
2023/12/27 20:11:11;;;;;;;50.90;29.40;;;;;;;1.08;81.74;99287.62;226439;1273;25402;-75
2023/12/27 20:16:15;;;;;;;56.40;29.90;;;;;;;1.01;81.89;99274.40;226465;1273;22554;-75
2023/12/27 20:21:18;;;;;;;54.10;31.30;;;;;;;0.95;82.04;99276.77;226597;1273;22595;-74
2023/12/27 20:26:22;;;;;;;56.80;30.70;;;;;;;0.89;81.93;99280.86;226518;1271;25259;-75
2023/12/27 20:31:24;;;;;;;55.40;30.80;;;;;;;0.83;82.06;99275.04;226518;1273;22537;-74
2023/12/27 20:36:27;;;;;;;55.70;30.20;;;;;;;0.79;81.96;99273.84;226772;1273;22540;-74
2023/12/27 20:41:32;;;;;;;55.90;30.20;;;;;;;0.76;81.89;99257.80;226525;1273;22562;-75
2023/12/27 20:46:36;;;;;;;56.50;30.80;;;;;;;0.72;82.16;99248.52;226633;1267;22597;-75
2023/12/27 20:51:48;;;;;;;63.20;32.60;;;;;;;0.72;82.11;99229.30;226561;1272;22560;-74
2023/12/27 20:56:51;;;;;;;62.00;31.30;;;;;;;0.74;82.10;99221.19;226502;1273;22569;-74
2023/12/27 21:01:54;;;;;;;55.40;29.70;;;;;;;0.75;82.38;99213.45;226577;1273;22545;-74
2023/12/27 21:06:56;;;;;;;53.30;26.80;;;;;;;0.76;82.22;99215.09;226466;1270;22559;-74
2023/12/27 21:12:02;;;;;;;51.00;25.00;;;;;;;0.78;82.15;99211.68;226449;1273;22547;-75
2023/12/27 21:17:04;;;;;;;43.90;23.60;;;;;;;0.78;82.35;99211.63;226559;1272;22600;-75
2023/12/27 21:22:09;;;;;;;44.30;22.10;;;;;;;0.79;82.21;99208.13;226522;1273;22584;-75
2023/12/27 21:27:12;;;;;;;45.30;22.60;;;;;;;0.80;82.20;99197.63;226693;1270;22550;-75
2023/12/27 21:32:15;;;;;;;41.00;21.60;;;;;;;0.85;82.10;99183.95;226495;1273;22562;-75
2023/12/27 21:37:17;;;;;;;45.00;22.10;;;;;;;0.91;82.12;99190.72;226431;1274;22544;-75
2023/12/27 21:42:19;;;;;;;41.90;21.20;;;;;;;0.97;82.17;99181.04;226498;1270;22561;-76
2023/12/27 21:47:23;;;;;;;43.30;20.40;;;;;;;1.03;82.18;99177.31;226518;1269;22576;-74
2023/12/27 21:52:27;;;;;;;39.50;21.90;;;;;;;1.08;82.22;99176.02;226445;1270;22552;-74
2023/12/27 21:57:32;;;;;;;43.90;21.50;;;;;;;1.13;82.01;99179.87;226340;1273;22557;-75
2023/12/27 22:02:43;;;;;;;41.70;21.40;;;;;;;1.17;81.91;99185.08;226467;1270;24364;-75
2023/12/27 22:07:51;;;;;;;39.70;20.90;;;;;;;1.22;82.04;99176.87;226545;1273;22537;-74
2023/12/27 22:13:06;;;;;;;45.40;22.70;;;;;;;1.31;81.98;99184.52;226395;1273;22543;-74
2023/12/27 22:18:09;;;;;;;42.60;23.10;;;;;;;1.39;82.03;99190.27;226545;1270;25398;-74
2023/12/27 22:23:13;;;;;;;44.20;23.00;;;;;;;1.47;81.75;99174.41;226472;1273;22574;-75
2023/12/27 22:28:16;;;;;;;43.50;20.20;;;;;;;1.54;82.03;99166.40;226335;1273;22537;-75
2023/12/27 22:33:18;;;;;;;35.40;20.00;;;;;;;1.61;81.95;99158.02;226593;1272;22569;-75
2023/12/27 22:38:20;;;;;;;40.10;20.80;;;;;;;1.65;81.86;99154.54;226457;1272;22987;-75
2023/12/27 22:43:26;;;;;;;40.80;20.20;;;;;;;1.69;81.71;99150.52;226481;1273;24021;-75
2023/12/27 22:48:29;;;;;;;45.60;22.40;;;;;;;1.73;81.63;99142.78;226609;1269;22564;-75
2023/12/27 22:53:32;;;;;;;39.20;21.00;;;;;;;1.74;81.52;99127.22;226523;1272;22583;-75
2023/12/27 22:58:34;;;;;;;38.20;19.10;;;;;;;1.75;81.57;99125.95;226475;1274;22560;-74
2023/12/27 23:03:36;;;;;;;36.50;18.80;;;;;;;1.77;81.67;99121.80;226430;1272;22545;-76
2023/12/27 23:08:38;;;;;;;36.50;19.20;;;;;;;1.79;81.67;99119.53;226473;1273;22554;-75
2023/12/27 23:13:40;;;;;;;36.90;20.40;;;;;;;1.79;81.73;99108.24;226456;1270;22550;-74
2023/12/27 23:18:44;;;;;;;40.30;21.40;;;;;;;1.78;81.57;99103.15;226530;1263;22641;-75
2023/12/27 23:23:46;;;;;;;38.20;20.90;;;;;;;1.75;81.78;99098.69;226439;1270;22627;-77
2023/12/27 23:28:48;;;;;;;39.60;21.00;;;;;;;1.74;81.60;99099.99;226422;1272;116652;-75
2023/12/27 23:33:50;;;;;;;42.30;21.50;;;;;;;1.73;81.58;99086.71;226492;1273;22564;-74